CheckWX is a tool to help pilots better visualize weather data.  It is not intended as a substitute for an official pre-flight weather briefing.

20:41:57 UTC

KCBK METAR
Shalz Field Airport
Colby, Kansas, USA
Current

27 mins ago

KCBK 232015Z AUTO 06005KT 10SM CLR 16/M02 A3009 RMK AO2
Observed
Apr-23 @ 20:15 UTC
Wind
  • 060° at 5 KTS
Visibility
10 SM
Flight Rules
VFR
Cloud Levels
  • Clear skies
Temperature
16°C / 61°F
Dewpoint
-2°C / 28°F
Humidity
29%
Altimeter
30.09" Hg
Pressure
1018.92 hPa
Previous

47 mins ago

KCBK 231955Z AUTO 00000KT 10SM CLR 16/M01 A3010 RMK AO2
Observed
Apr-23 @ 19:55 UTC
Visibility
10 SM
Flight Rules
VFR
Cloud Levels
  • Clear skies
Temperature
16°C / 61°F
Dewpoint
-1°C / 30°F
Humidity
31%
Altimeter
30.1" Hg
Pressure
1019.32 hPa
Previous

1 hour ago

KCBK 231935Z AUTO 10006KT 10SM CLR 15/M02 A3011 RMK AO2
Observed
Apr-23 @ 19:35 UTC
Wind
  • 100° at 6 KTS
Visibility
10 SM
Flight Rules
VFR
Cloud Levels
  • Clear skies
Temperature
15°C / 59°F
Dewpoint
-2°C / 28°F
Humidity
31%
Altimeter
30.11" Hg
Pressure
1019.62 hPa